sensor_id;sensor_type;location;lat;lon;timestamp;pressure;altitude;pressure_sealevel;temperature;humidity
30949;BME280;17637;51.984;21.208;2022-09-29T00:00:43;98748.63;;;9.56;79.61
30949;BME280;17637;51.984;21.208;2022-09-29T00:03:10;98436.00;;;7.85;80.40
30949;BME280;17637;51.984;21.208;2022-09-29T00:05:37;98542.00;;;8.18;80.91
30949;BME280;17637;51.984;21.208;2022-09-29T00:08:04;98572.31;;;8.54;81.00
30949;BME280;17637;51.984;21.208;2022-09-29T00:10:31;98472.47;;;7.85;81.20
30949;BME280;17637;51.984;21.208;2022-09-29T00:12:58;98719.63;;;9.45;80.90
30949;BME280;17637;51.984;21.208;2022-09-29T00:15:25;98099.34;;;5.69;80.70
30949;BME280;17637;51.984;21.208;2022-09-29T00:17:52;98702.41;;;8.93;81.17
30949;BME280;17637;51.984;21.208;2022-09-29T00:20:39;98673.28;;;9.01;81.55
30949;BME280;17637;51.984;21.208;2022-09-29T00:23:06;98443.34;;;7.61;81.32
30949;BME280;17637;51.984;21.208;2022-09-29T00:25:33;98552.34;;;8.20;81.26
30949;BME280;17637;51.984;21.208;2022-09-29T00:28:00;98171.34;;;6.02;80.70
30949;BME280;17637;51.984;21.208;2022-09-29T00:30:28;98747.41;;;9.30;81.06
30949;BME280;17637;51.984;21.208;2022-09-29T00:32:55;98289.28;;;6.34;81.05
30949;BME280;17637;51.984;21.208;2022-09-29T00:35:22;97546.41;;;1.36;80.08
30949;BME280;17637;51.984;21.208;2022-09-29T00:37:49;98422.06;;;7.36;80.69
30949;BME280;17637;51.984;21.208;2022-09-29T00:40:16;98757.09;;;9.28;80.69
30949;BME280;17637;51.984;21.208;2022-09-29T00:42:43;98592.72;;;8.46;81.00
30949;BME280;17637;51.984;21.208;2022-09-29T00:45:20;98725.69;;;9.14;81.12
30949;BME280;17637;51.984;21.208;2022-09-29T00:47:55;98574.19;;;8.17;81.29
30949;BME280;17637;51.984;21.208;2022-09-29T00:50:41;98714.63;;;9.09;81.08
30949;BME280;17637;51.984;21.208;2022-09-29T00:53:09;98710.81;;;8.99;81.67
30949;BME280;17637;51.984;21.208;2022-09-29T00:55:49;98523.41;;;7.91;81.58
30949;BME280;17637;51.984;21.208;2022-09-29T00:58:32;98709.34;;;9.10;81.31
30949;BME280;17637;51.984;21.208;2022-09-29T01:01:00;98388.50;;;7.14;81.23
30949;BME280;17637;51.984;21.208;2022-09-29T01:03:31;98414.13;;;7.04;81.20
30949;BME280;17637;51.984;21.208;2022-09-29T01:06:07;98475.00;;;7.36;80.57
30949;BME280;17637;51.984;21.208;2022-09-29T01:11:14;98685.69;;;8.64;81.51
30949;BME280;17637;51.984;21.208;2022-09-29T01:13:42;98416.66;;;7.23;81.17
30949;BME280;17637;51.984;21.208;2022-09-29T01:16:10;98177.59;;;5.81;80.83
30949;BME280;17637;51.984;21.208;2022-09-29T01:18:37;98590.06;;;8.13;81.37
30949;BME280;17637;51.984;21.208;2022-09-29T01:34:49;98759.94;;;9.08;81.56
30949;BME280;17637;51.984;21.208;2022-09-29T01:40:55;98753.25;;;8.86;82.06
30949;BME280;17637;51.984;21.208;2022-09-29T01:43:30;98770.56;;;8.87;81.81
30949;BME280;17637;51.984;21.208;2022-09-29T01:46:06;98505.72;;;7.30;81.94
30949;BME280;17637;51.984;21.208;2022-09-29T01:48:43;97753.94;;;2.73;81.36
30949;BME280;17637;51.984;21.208;2022-09-29T01:51:16;98411.75;;;6.82;81.83
30949;BME280;17637;51.984;21.208;2022-09-29T01:53:48;98768.19;;;9.00;81.76
30949;BME280;17637;51.984;21.208;2022-09-29T01:56:21;98619.06;;;7.72;81.48
30949;BME280;17637;51.984;21.208;2022-09-29T01:58:55;98579.00;;;7.57;81.32
30949;BME280;17637;51.984;21.208;2022-09-29T02:01:28;98770.69;;;8.86;81.58
30949;BME280;17637;51.984;21.208;2022-09-29T02:04:01;98612.63;;;7.79;81.31
30949;BME280;17637;51.984;21.208;2022-09-29T02:06:36;98699.09;;;8.39;81.30
30949;BME280;17637;51.984;21.208;2022-09-29T02:09:14;98496.28;;;7.10;81.69
30949;BME280;17637;51.984;21.208;2022-09-29T02:11:45;98634.78;;;8.05;81.32
30949;BME280;17637;51.984;21.208;2022-09-29T02:14:19;98109.00;;;4.76;81.08
30949;BME280;17637;51.984;21.208;2022-09-29T02:16:54;98395.28;;;6.47;81.43
30949;BME280;17637;51.984;21.208;2022-09-29T02:19:29;98704.78;;;8.13;81.40
30949;BME280;17637;51.984;21.208;2022-09-29T02:21:57;98817.97;;;8.80;81.99
30949;BME280;17637;51.984;21.208;2022-09-29T02:24:24;98300.91;;;5.72;81.21
30949;BME280;17637;51.984;21.208;2022-09-29T02:26:52;98772.84;;;8.60;81.89
30949;BME280;17637;51.984;21.208;2022-09-29T02:29:19;98667.94;;;7.49;81.77
30949;BME280;17637;51.984;21.208;2022-09-29T02:31:47;98803.78;;;8.85;81.97
30949;BME280;17637;51.984;21.208;2022-09-29T02:34:19;98456.44;;;6.73;81.50
30949;BME280;17637;51.984;21.208;2022-09-29T02:46:00;98575.47;;;7.40;81.56
30949;BME280;17637;51.984;21.208;2022-09-29T02:59:25;98678.72;;;7.95;81.61
30949;BME280;17637;51.984;21.208;2022-09-29T03:01:55;98815.56;;;8.75;82.05
30949;BME280;17637;51.984;21.208;2022-09-29T03:04:27;98187.69;;;4.56;81.33
30949;BME280;17637;51.984;21.208;2022-09-29T03:06:54;98098.72;;;4.36;81.09
30949;BME280;17637;51.984;21.208;2022-09-29T03:09:21;98510.03;;;6.58;81.20
30949;BME280;17637;51.984;21.208;2022-09-29T03:11:48;98440.72;;;6.21;81.47
30949;BME280;17637;51.984;21.208;2022-09-29T03:14:15;98545.00;;;6.89;81.34
30949;BME280;17637;51.984;21.208;2022-09-29T03:16:42;98792.53;;;8.31;81.03
30949;BME280;17637;51.984;21.208;2022-09-29T03:19:09;98650.19;;;7.38;80.93
30949;BME280;17637;51.984;21.208;2022-09-29T03:21:36;98763.25;;;7.89;81.65
30949;BME280;17637;51.984;21.208;2022-09-29T03:24:03;98841.16;;;8.32;81.85
30949;BME280;17637;51.984;21.208;2022-09-29T03:26:31;98667.00;;;7.50;81.58
30949;BME280;17637;51.984;21.208;2022-09-29T03:28:59;98312.75;;;4.81;81.04
30949;BME280;17637;51.984;21.208;2022-09-29T03:31:26;98443.53;;;6.16;80.81
30949;BME280;17637;51.984;21.208;2022-09-29T03:33:53;97795.00;;;2.18;80.44
30949;BME280;17637;51.984;21.208;2022-09-29T03:36:20;98607.63;;;7.03;81.26
30949;BME280;17637;51.984;21.208;2022-09-29T03:38:47;98771.31;;;8.02;81.38
30949;BME280;17637;51.984;21.208;2022-09-29T03:41:14;98860.16;;;8.53;81.09
30949;BME280;17637;51.984;21.208;2022-09-29T03:43:41;98729.72;;;7.45;80.90
30949;BME280;17637;51.984;21.208;2022-09-29T03:46:08;98537.78;;;6.57;81.38
30949;BME280;17637;51.984;21.208;2022-09-29T03:48:35;98196.03;;;4.42;81.05
30949;BME280;17637;51.984;21.208;2022-09-29T03:51:03;98608.34;;;6.88;81.41
30949;BME280;17637;51.984;21.208;2022-09-29T03:53:30;98660.47;;;7.24;80.84
30949;BME280;17637;51.984;21.208;2022-09-29T03:55:57;98744.75;;;7.77;80.66
30949;BME280;17637;51.984;21.208;2022-09-29T03:58:24;98842.28;;;8.45;80.77
30949;BME280;17637;51.984;21.208;2022-09-29T04:00:52;98846.91;;;8.39;81.03
30949;BME280;17637;51.984;21.208;2022-09-29T04:03:20;98657.00;;;7.04;80.78
30949;BME280;17637;51.984;21.208;2022-09-29T04:05:47;98557.31;;;6.66;80.64
30949;BME280;17637;51.984;21.208;2022-09-29T04:08:15;98698.00;;;7.37;80.64
30949;BME280;17637;51.984;21.208;2022-09-29T04:10:45;98851.16;;;8.41;80.09
30949;BME280;17637;51.984;21.208;2022-09-29T04:13:13;98454.53;;;5.82;80.22
30949;BME280;17637;51.984;21.208;2022-09-29T04:15:45;98739.44;;;7.61;80.45
30949;BME280;17637;51.984;21.208;2022-09-29T04:18:12;98097.72;;;3.58;79.85
30949;BME280;17637;51.984;21.208;2022-09-29T04:20:39;98605.97;;;6.64;80.46
30949;BME280;17637;51.984;21.208;2022-09-29T04:23:06;98664.16;;;6.99;80.17
30949;BME280;17637;51.984;21.208;2022-09-29T04:25:33;98345.34;;;4.87;80.20
30949;BME280;17637;51.984;21.208;2022-09-29T04:28:00;98293.19;;;4.74;80.32
30949;BME280;17637;51.984;21.208;2022-09-29T04:30:27;98703.56;;;7.11;79.85
30949;BME280;17637;51.984;21.208;2022-09-29T04:32:54;98375.25;;;4.96;79.54
30949;BME280;17637;51.984;21.208;2022-09-29T04:35:21;98838.13;;;7.86;79.52
30949;BME280;17637;51.984;21.208;2022-09-29T04:37:48;98713.50;;;7.02;80.01
30949;BME280;17637;51.984;21.208;2022-09-29T04:40:15;98852.34;;;7.79;79.72
30949;BME280;17637;51.984;21.208;2022-09-29T04:42:43;98851.47;;;7.80;79.76
30949;BME280;17637;51.984;21.208;2022-09-29T04:45:10;98741.69;;;7.31;80.26
30949;BME280;17637;51.984;21.208;2022-09-29T04:47:37;98511.31;;;5.50;80.01
30949;BME280;17637;51.984;21.208;2022-09-29T04:50:04;97885.91;;;2.04;79.21
30949;BME280;17637;51.984;21.208;2022-09-29T04:52:32;98869.66;;;8.18;79.69
30949;BME280;17637;51.984;21.208;2022-09-29T04:54:59;98852.13;;;8.02;79.55
30949;BME280;17637;51.984;21.208;2022-09-29T04:57:26;98597.91;;;5.69;79.28
30949;BME280;17637;51.984;21.208;2022-09-29T04:59:53;98293.22;;;4.73;78.78
30949;BME280;17637;51.984;21.208;2022-09-29T05:02:21;98496.09;;;6.02;79.25
30949;BME280;17637;51.984;21.208;2022-09-29T05:04:48;98513.88;;;6.11;79.55
30949;BME280;17637;51.984;21.208;2022-09-29T05:07:15;98577.00;;;6.53;79.77
30949;BME280;17637;51.984;21.208;2022-09-29T05:09:42;97556.50;;;0.32;78.50
30949;BME280;17637;51.984;21.208;2022-09-29T05:12:09;98630.22;;;6.83;79.40
30949;BME280;17637;51.984;21.208;2022-09-29T05:14:36;98416.19;;;5.49;79.10
30949;BME280;17637;51.984;21.208;2022-09-29T05:17:03;98390.19;;;5.30;79.11
30949;BME280;17637;51.984;21.208;2022-09-29T05:19:30;98652.22;;;6.76;79.64
30949;BME280;17637;51.984;21.208;2022-09-29T05:21:58;98706.31;;;7.08;79.91
30949;BME280;17637;51.984;21.208;2022-09-29T05:24:26;98872.09;;;8.03;79.40
30949;BME280;17637;51.984;21.208;2022-09-29T05:26:53;98733.97;;;7.10;79.52
30949;BME280;17637;51.984;21.208;2022-09-29T05:29:23;98922.78;;;8.53;79.72
30949;BME280;17637;51.984;21.208;2022-09-29T05:31:50;98952.41;;;8.52;79.24
30949;BME280;17637;51.984;21.208;2022-09-29T05:34:18;98897.78;;;8.30;79.88
30949;BME280;17637;51.984;21.208;2022-09-29T05:36:45;98084.66;;;2.75;79.26
30949;BME280;17637;51.984;21.208;2022-09-29T05:39:12;98396.75;;;5.18;79.37
30949;BME280;17637;51.984;21.208;2022-09-29T05:41:39;98046.69;;;3.19;79.21
30949;BME280;17637;51.984;21.208;2022-09-29T05:44:06;98649.53;;;6.78;79.48
30949;BME280;17637;51.984;21.208;2022-09-29T05:46:33;98949.59;;;8.57;79.12
30949;BME280;17637;51.984;21.208;2022-09-29T05:49:01;97519.41;;;-0.33;78.55
30949;BME280;17637;51.984;21.208;2022-09-29T05:51:28;98919.16;;;8.37;79.06
30949;BME280;17637;51.984;21.208;2022-09-29T05:53:54;98878.34;;;8.18;78.83
30949;BME280;17637;51.984;21.208;2022-09-29T05:56:25;98944.16;;;8.79;78.69
30949;BME280;17637;51.984;21.208;2022-09-29T05:58:55;98943.22;;;8.80;78.80
30949;BME280;17637;51.984;21.208;2022-09-29T06:01:24;98895.75;;;7.80;78.70
30949;BME280;17637;51.984;21.208;2022-09-29T06:03:53;98192.41;;;4.25;78.14
30949;BME280;17637;51.984;21.208;2022-09-29T06:06:22;97936.25;;;2.81;77.64
30949;BME280;17637;51.984;21.208;2022-09-29T06:08:50;98930.13;;;8.99;78.12
30949;BME280;17637;51.984;21.208;2022-09-29T06:11:22;99005.34;;;8.54;78.86
30949;BME280;17637;51.984;21.208;2022-09-29T06:13:51;98952.78;;;8.98;78.64
30949;BME280;17637;51.984;21.208;2022-09-29T06:16:21;98953.28;;;8.87;78.88
30949;BME280;17637;51.984;21.208;2022-09-29T06:18:50;98859.47;;;8.13;78.94
30949;BME280;17637;51.984;21.208;2022-09-29T06:21:22;97709.63;;;1.16;76.57
30949;BME280;17637;51.984;21.208;2022-09-29T06:23:51;98181.50;;;4.19;77.26
30949;BME280;17637;51.984;21.208;2022-09-29T06:26:20;98832.53;;;8.13;78.01
30949;BME280;17637;51.984;21.208;2022-09-29T06:28:50;98815.69;;;8.01;77.65
30949;BME280;17637;51.984;21.208;2022-09-29T06:31:20;98979.72;;;8.81;78.38
30949;BME280;17637;51.984;21.208;2022-09-29T06:33:48;98881.94;;;8.16;78.28
30949;BME280;17637;51.984;21.208;2022-09-29T06:36:17;97966.84;;;2.69;77.11
30949;BME280;17637;51.984;21.208;2022-09-29T06:39:05;98979.69;;;8.64;77.94
30949;BME280;17637;51.984;21.208;2022-09-29T06:41:33;98985.59;;;8.48;78.01
30949;BME280;17637;51.984;21.208;2022-09-29T06:44:01;98939.00;;;8.41;78.03
30949;BME280;17637;51.984;21.208;2022-09-29T06:46:28;98859.13;;;8.02;77.72
30949;BME280;17637;51.984;21.208;2022-09-29T06:48:56;98633.91;;;6.40;77.49
30949;BME280;17637;51.984;21.208;2022-09-29T06:51:24;98773.38;;;7.59;77.88
30949;BME280;17637;51.984;21.208;2022-09-29T06:54:06;98770.66;;;7.43;77.54
30949;BME280;17637;51.984;21.208;2022-09-29T06:56:37;98893.09;;;8.37;76.44
30949;BME280;17637;51.984;21.208;2022-09-29T06:59:04;98843.56;;;7.81;76.30
30949;BME280;17637;51.984;21.208;2022-09-29T07:01:31;98752.31;;;7.45;75.76
30949;BME280;17637;51.984;21.208;2022-09-29T07:03:58;98415.00;;;5.56;75.57
30949;BME280;17637;51.984;21.208;2022-09-29T07:06:27;99014.56;;;9.16;76.63
30949;BME280;17637;51.984;21.208;2022-09-29T07:08:56;99008.28;;;9.02;76.74
30949;BME280;17637;51.984;21.208;2022-09-29T07:11:24;97636.50;;;0.73;75.63
30949;BME280;17637;51.984;21.208;2022-09-29T07:13:53;99009.41;;;9.15;75.55
30949;BME280;17637;51.984;21.208;2022-09-29T07:16:21;99013.56;;;9.36;76.12
30949;BME280;17637;51.984;21.208;2022-09-29T07:18:51;98956.63;;;9.08;76.20
30949;BME280;17637;51.984;21.208;2022-09-29T07:21:19;99016.63;;;9.62;75.61
30949;BME280;17637;51.984;21.208;2022-09-29T07:23:47;98964.69;;;9.21;74.84
30949;BME280;17637;51.984;21.208;2022-09-29T07:26:15;98992.72;;;9.35;74.21
30949;BME280;17637;51.984;21.208;2022-09-29T07:28:44;99016.38;;;9.67;75.34
30949;BME280;17637;51.984;21.208;2022-09-29T07:31:14;99011.00;;;9.52;75.48
30949;BME280;17637;51.984;21.208;2022-09-29T07:33:43;99012.47;;;9.58;75.00
30949;BME280;17637;51.984;21.208;2022-09-29T07:36:11;98982.88;;;9.40;74.15
30949;BME280;17637;51.984;21.208;2022-09-29T07:38:39;98868.84;;;9.06;74.50
30949;BME280;17637;51.984;21.208;2022-09-29T07:41:10;98737.31;;;8.23;73.59
30949;BME280;17637;51.984;21.208;2022-09-29T07:43:38;98749.25;;;8.27;72.50
30949;BME280;17637;51.984;21.208;2022-09-29T07:54:14;98998.25;;;9.46;74.88
30949;BME280;17637;51.984;21.208;2022-09-29T07:56:41;99020.84;;;9.47;75.28
30949;BME280;17637;51.984;21.208;2022-09-29T07:59:09;98992.88;;;9.32;74.04
30949;BME280;17637;51.984;21.208;2022-09-29T08:01:37;99010.00;;;9.37;72.98
30949;BME280;17637;51.984;21.208;2022-09-29T08:04:03;99002.94;;;9.57;73.80
30949;BME280;17637;51.984;21.208;2022-09-29T08:06:30;98964.84;;;9.18;72.99
30949;BME280;17637;51.984;21.208;2022-09-29T08:08:59;98923.28;;;9.13;72.12
30949;BME280;17637;51.984;21.208;2022-09-29T08:11:32;98264.38;;;5.20;72.74
30949;BME280;17637;51.984;21.208;2022-09-29T08:14:03;98697.56;;;7.83;73.81
30949;BME280;17637;51.984;21.208;2022-09-29T08:16:31;99051.19;;;9.85;71.53
30949;BME280;17637;51.984;21.208;2022-09-29T08:18:59;98938.44;;;9.24;71.75
30949;BME280;17637;51.984;21.208;2022-09-29T08:21:27;98599.78;;;7.76;71.47
30949;BME280;17637;51.984;21.208;2022-09-29T08:23:55;98837.47;;;8.90;71.32
30949;BME280;17637;51.984;21.208;2022-09-29T08:26:22;99077.19;;;10.38;72.03
30949;BME280;17637;51.984;21.208;2022-09-29T08:29:06;98895.06;;;9.37;71.44
30949;BME280;17637;51.984;21.208;2022-09-29T08:31:35;98737.16;;;8.61;70.54
30949;BME280;17637;51.984;21.208;2022-09-29T08:34:03;99067.16;;;10.62;70.40
30949;BME280;17637;51.984;21.208;2022-09-29T08:36:30;98238.63;;;5.89;71.62
30949;BME280;17637;51.984;21.208;2022-09-29T08:38:57;98704.69;;;8.31;69.75
30949;BME280;17637;51.984;21.208;2022-09-29T08:44:23;99082.38;;;10.72;69.43
30949;BME280;17637;51.984;21.208;2022-09-29T08:49:41;97774.91;;;2.67;68.51
30949;BME280;17637;51.984;21.208;2022-09-29T08:52:13;98607.38;;;7.80;70.38
30949;BME280;17637;51.984;21.208;2022-09-29T08:54:44;99052.31;;;10.47;70.78
30949;BME280;17637;51.984;21.208;2022-09-29T08:57:17;99095.38;;;10.89;70.39
30949;BME280;17637;51.984;21.208;2022-09-29T09:08:02;99099.84;;;10.55;69.69
30949;BME280;17637;51.984;21.208;2022-09-29T09:10:48;99093.09;;;10.67;70.33
30949;BME280;17637;51.984;21.208;2022-09-29T09:16:40;99099.88;;;10.87;68.16
30949;BME280;17637;51.984;21.208;2022-09-29T09:22:21;99042.50;;;10.51;67.46
30949;BME280;17637;51.984;21.208;2022-09-29T09:25:00;99103.25;;;11.05;66.78
30949;BME280;17637;51.984;21.208;2022-09-29T09:27:36;98127.66;;;5.03;67.63
30949;BME280;17637;51.984;21.208;2022-09-29T09:30:16;99123.69;;;10.98;67.26
30949;BME280;17637;51.984;21.208;2022-09-29T09:32:51;98952.69;;;9.85;68.07
30949;BME280;17637;51.984;21.208;2022-09-29T09:35:54;99116.16;;;10.76;65.78
30949;BME280;17637;51.984;21.208;2022-09-29T09:38:32;98978.94;;;10.33;66.85
30949;BME280;17637;51.984;21.208;2022-09-29T09:41:06;98915.91;;;9.88;65.96
30949;BME280;17637;51.984;21.208;2022-09-29T09:43:39;97636.63;;;2.59;66.11
30949;BME280;17637;51.984;21.208;2022-09-29T09:46:32;98709.84;;;9.33;65.90
30949;BME280;17637;51.984;21.208;2022-09-29T09:54:42;99118.16;;;11.81;64.47
30949;BME280;17637;51.984;21.208;2022-09-29T10:02:54;98865.56;;;10.16;63.18
30949;BME280;17637;51.984;21.208;2022-09-29T10:05:25;99117.31;;;11.96;64.84
30949;BME280;17637;51.984;21.208;2022-09-29T10:07:55;99136.75;;;12.08;65.69
30949;BME280;17637;51.984;21.208;2022-09-29T10:10:26;99094.06;;;11.60;62.36
30949;BME280;17637;51.984;21.208;2022-09-29T10:13:04;99129.06;;;12.19;63.82
30949;BME280;17637;51.984;21.208;2022-09-29T10:15:40;98887.41;;;10.93;62.08
30949;BME280;17637;51.984;21.208;2022-09-29T10:18:16;98621.41;;;9.27;60.49
30949;BME280;17637;51.984;21.208;2022-09-29T10:20:43;99139.00;;;12.28;62.96
30949;BME280;17637;51.984;21.208;2022-09-29T10:23:30;99135.56;;;12.42;62.85
30949;BME280;17637;51.984;21.208;2022-09-29T10:26:07;99136.41;;;12.43;63.41
30949;BME280;17637;51.984;21.208;2022-09-29T10:28:45;99132.47;;;12.64;63.86
30949;BME280;17637;51.984;21.208;2022-09-29T10:31:21;99016.88;;;12.37;63.40
30949;BME280;17637;51.984;21.208;2022-09-29T10:36:55;99131.31;;;12.83;60.06
30949;BME280;17637;51.984;21.208;2022-09-29T10:39:42;99136.13;;;12.76;61.30
30949;BME280;17637;51.984;21.208;2022-09-29T10:44:53;99144.78;;;13.05;59.23
30949;BME280;17637;51.984;21.208;2022-09-29T10:47:22;99011.16;;;12.16;60.88
30949;BME280;17637;51.984;21.208;2022-09-29T10:50:13;98971.53;;;12.06;61.83
30949;BME280;17637;51.984;21.208;2022-09-29T10:52:42;99145.78;;;12.61;60.56
30949;BME280;17637;51.984;21.208;2022-09-29T10:55:22;98824.09;;;10.56;62.00
30949;BME280;17637;51.984;21.208;2022-09-29T10:57:51;99013.56;;;11.76;63.07
30949;BME280;17637;51.984;21.208;2022-09-29T11:00:34;99151.97;;;12.60;62.05
30949;BME280;17637;51.984;21.208;2022-09-29T11:05:34;99155.06;;;12.81;59.89
30949;BME280;17637;51.984;21.208;2022-09-29T11:08:02;98885.22;;;11.30;62.73
30949;BME280;17637;51.984;21.208;2022-09-29T11:15:45;98954.19;;;11.89;62.01
30949;BME280;17637;51.984;21.208;2022-09-29T11:18:35;98940.28;;;12.30;59.43
30949;BME280;17637;51.984;21.208;2022-09-29T11:26:50;99166.03;;;12.59;59.43
30949;BME280;17637;51.984;21.208;2022-09-29T11:32:23;99166.78;;;12.47;60.66
30949;BME280;17637;51.984;21.208;2022-09-29T11:35:30;99082.88;;;11.86;59.81
30949;BME280;17637;51.984;21.208;2022-09-29T11:46:23;99051.75;;;11.80;60.73
30949;BME280;17637;51.984;21.208;2022-09-29T12:06:29;99079.75;;;11.96;58.00
30949;BME280;17637;51.984;21.208;2022-09-29T12:09:14;99176.34;;;12.48;58.31
30949;BME280;17637;51.984;21.208;2022-09-29T12:11:58;99172.97;;;12.60;57.73
30949;BME280;17637;51.984;21.208;2022-09-29T12:15:02;99178.31;;;12.58;57.96
30949;BME280;17637;51.984;21.208;2022-09-29T12:17:37;99026.13;;;11.41;58.41
30949;BME280;17637;51.984;21.208;2022-09-29T12:20:36;99057.25;;;11.91;58.99
30949;BME280;17637;51.984;21.208;2022-09-29T12:23:10;99032.97;;;11.43;58.90
30949;BME280;17637;51.984;21.208;2022-09-29T12:25:59;99200.38;;;12.56;58.74
30949;BME280;17637;51.984;21.208;2022-09-29T12:28:53;99183.03;;;12.68;58.40
30949;BME280;17637;51.984;21.208;2022-09-29T12:31:31;99186.97;;;12.61;57.65
30949;BME280;17637;51.984;21.208;2022-09-29T12:34:17;99077.22;;;11.78;57.36
30949;BME280;17637;51.984;21.208;2022-09-29T12:36:54;99192.97;;;12.48;58.37
30949;BME280;17637;51.984;21.208;2022-09-29T12:42:16;99202.44;;;12.65;58.51
30949;BME280;17637;51.984;21.208;2022-09-29T12:50:39;99152.66;;;13.19;56.89
30949;BME280;17637;51.984;21.208;2022-09-29T12:53:12;99191.81;;;13.10;56.62
30949;BME280;17637;51.984;21.208;2022-09-29T12:58:45;99112.75;;;12.86;57.24
30949;BME280;17637;51.984;21.208;2022-09-29T13:01:28;98851.44;;;11.54;57.03
30949;BME280;17637;51.984;21.208;2022-09-29T13:07:20;99201.31;;;12.98;56.51
30949;BME280;17637;51.984;21.208;2022-09-29T13:15:15;99199.81;;;12.79;57.64
30949;BME280;17637;51.984;21.208;2022-09-29T13:18:15;99049.28;;;11.63;59.20
30949;BME280;17637;51.984;21.208;2022-09-29T13:21:36;99203.84;;;12.56;59.48
30949;BME280;17637;51.984;21.208;2022-09-29T13:29:19;99214.72;;;12.65;58.32
30949;BME280;17637;51.984;21.208;2022-09-29T13:31:48;99170.06;;;12.50;59.01
30949;BME280;17637;51.984;21.208;2022-09-29T13:34:28;99208.91;;;12.74;59.16
30949;BME280;17637;51.984;21.208;2022-09-29T13:37:25;99037.50;;;11.70;58.50
30949;BME280;17637;51.984;21.208;2022-09-29T13:42:45;99136.63;;;11.79;59.75
30949;BME280;17637;51.984;21.208;2022-09-29T13:47:59;99094.84;;;11.46;59.76
30949;BME280;17637;51.984;21.208;2022-09-29T14:01:02;99144.56;;;11.47;59.40
30949;BME280;17637;51.984;21.208;2022-09-29T14:09:14;99087.56;;;11.51;59.94
30949;BME280;17637;51.984;21.208;2022-09-29T14:11:48;99258.28;;;12.53;60.58
30949;BME280;17637;51.984;21.208;2022-09-29T14:14:20;99140.66;;;11.85;59.53
30949;BME280;17637;51.984;21.208;2022-09-29T14:16:57;99255.88;;;12.64;58.87
30949;BME280;17637;51.984;21.208;2022-09-29T14:19:34;99253.72;;;12.56;60.35
30949;BME280;17637;51.984;21.208;2022-09-29T14:22:52;99252.88;;;12.56;59.48
30949;BME280;17637;51.984;21.208;2022-09-29T14:24:52;99061.84;;;11.12;59.28
30949;BME280;17637;51.984;21.208;2022-09-29T14:27:32;99254.69;;;12.25;59.55
30949;BME280;17637;51.984;21.208;2022-09-29T14:32:39;99257.13;;;12.28;60.37
30949;BME280;17637;51.984;21.208;2022-09-29T14:35:27;99258.59;;;12.18;61.50
30949;BME280;17637;51.984;21.208;2022-09-29T14:40:53;99326.50;;;12.08;63.47
30949;BME280;17637;51.984;21.208;2022-09-29T14:43:25;99163.84;;;11.30;61.68
30949;BME280;17637;51.984;21.208;2022-09-29T14:49:36;99275.44;;;12.14;60.89
30949;BME280;17637;51.984;21.208;2022-09-29T14:55:30;99277.16;;;12.15;61.06
30949;BME280;17637;51.984;21.208;2022-09-29T15:03:46;99285.09;;;11.98;61.96
30949;BME280;17637;51.984;21.208;2022-09-29T15:06:20;99236.72;;;11.56;61.86
30949;BME280;17637;51.984;21.208;2022-09-29T15:08:59;99323.34;;;11.86;62.54
30949;BME280;17637;51.984;21.208;2022-09-29T15:11:35;98895.53;;;9.28;62.64
30949;BME280;17637;51.984;21.208;2022-09-29T15:14:30;99211.25;;;11.10;63.10
30949;BME280;17637;51.984;21.208;2022-09-29T15:25:39;99308.97;;;11.28;64.33
30949;BME280;17637;51.984;21.208;2022-09-29T15:28:20;99244.63;;;10.73;65.10
30949;BME280;17637;51.984;21.208;2022-09-29T15:30:49;98985.72;;;9.18;64.79
30949;BME280;17637;51.984;21.208;2022-09-29T15:33:22;99301.69;;;10.84;65.39
30949;BME280;17637;51.984;21.208;2022-09-29T15:35:58;99320.63;;;11.06;65.29
30949;BME280;17637;51.984;21.208;2022-09-29T15:38:31;99327.84;;;11.01;65.39
30949;BME280;17637;51.984;21.208;2022-09-29T15:41:13;99206.16;;;10.06;65.79
30949;BME280;17637;51.984;21.208;2022-09-29T15:43:57;99329.41;;;10.88;65.90
30949;BME280;17637;51.984;21.208;2022-09-29T15:46:36;98939.47;;;8.49;65.62
30949;BME280;17637;51.984;21.208;2022-09-29T15:49:19;99244.78;;;10.18;66.83
30949;BME280;17637;51.984;21.208;2022-09-29T15:52:02;99099.88;;;9.16;69.38
30949;BME280;17637;51.984;21.208;2022-09-29T15:54:35;99065.84;;;8.81;69.16
30949;BME280;17637;51.984;21.208;2022-09-29T15:57:06;99345.09;;;10.36;69.63
30949;BME280;17637;51.984;21.208;2022-09-29T15:59:53;99344.09;;;10.19;70.36
30949;BME280;17637;51.984;21.208;2022-09-29T16:02:35;99347.41;;;10.06;71.06
30949;BME280;17637;51.984;21.208;2022-09-29T16:05:08;98448.06;;;4.47;70.77
30949;BME280;17637;51.984;21.208;2022-09-29T16:07:40;99358.00;;;9.84;71.57
30949;BME280;17637;51.984;21.208;2022-09-29T16:10:17;99409.00;;;9.73;71.99
30949;BME280;17637;51.984;21.208;2022-09-29T16:13:01;99262.22;;;9.07;71.84
30949;BME280;17637;51.984;21.208;2022-09-29T16:15:40;99362.09;;;9.70;71.76
30949;BME280;17637;51.984;21.208;2022-09-29T16:18:17;99113.19;;;7.93;71.50
30949;BME280;17637;51.984;21.208;2022-09-29T16:20:46;99246.44;;;8.89;71.61
30949;BME280;17637;51.984;21.208;2022-09-29T16:23:28;99371.94;;;9.65;71.53
30949;BME280;17637;51.984;21.208;2022-09-29T16:26:34;99329.56;;;9.19;72.05
30949;BME280;17637;51.984;21.208;2022-09-29T16:31:31;99388.47;;;9.26;72.85
30949;BME280;17637;51.984;21.208;2022-09-29T16:33:59;99386.16;;;9.18;73.02
30949;BME280;17637;51.984;21.208;2022-09-29T16:36:32;99114.22;;;7.48;72.56
30949;BME280;17637;51.984;21.208;2022-09-29T16:39:05;99384.88;;;9.08;73.55
30949;BME280;17637;51.984;21.208;2022-09-29T16:41:34;99317.47;;;8.35;73.49
30949;BME280;17637;51.984;21.208;2022-09-29T16:44:29;99393.38;;;8.93;73.88
30949;BME280;17637;51.984;21.208;2022-09-29T16:49:53;99281.53;;;8.21;73.66
30949;BME280;17637;51.984;21.208;2022-09-29T16:52:22;99394.16;;;8.95;74.27